Time;durP1;ratioP1;P1;durP2;ratioP2;P2;SDS_P1;SDS_P2;PMS_P1;PMS_P2;Temp;Humidity;BMP_temperature;BMP_pressure;BME280_temperature;BME280_humidity;BME280_pressure;Samples;Min_cycle;Max_cycle;Signal;HPM_P1;HPM_P2
2022/07/31 00:00:10;;;;;;;;;;;16.60;99.90;;;;;;5083865;28;20119;-67
2022/07/31 00:02:36;;;;;;;;;;;16.60;99.90;;;;;;5082886;28;20212;-68
2022/07/31 00:05:04;;;;;;;;;;;16.60;99.90;;;;;;5083499;28;19952;-67
2022/07/31 00:07:30;;;;;;;;;;;16.50;99.90;;;;;;5083454;28;19920;-67
2022/07/31 00:09:57;;;;;;;;;;;16.50;99.90;;;;;;5083256;28;19928;-68
2022/07/31 00:12:24;;;;;;;;;;;16.50;99.90;;;;;;5088255;28;19920;-68
2022/07/31 00:14:52;;;;;;;;;;;16.50;99.90;;;;;;5102916;28;20235;-67
2022/07/31 00:17:18;;;;;;;;;;;16.50;99.90;;;;;;5103224;28;19939;-67
2022/07/31 00:19:45;;;;;;;;;;;16.50;99.90;;;;;;5103469;28;19942;-68
2022/07/31 00:22:12;;;;;;;;;;;16.50;99.90;;;;;;5103492;28;19927;-67
2022/07/31 00:24:39;;;;;;;;;;;16.50;99.90;;;;;;5095229;28;19995;-68
2022/07/31 00:27:05;;;;;;;;;;;16.50;99.90;;;;;;5083052;28;19987;-67
2022/07/31 00:29:32;;;;;;;;;;;16.40;99.90;;;;;;5082933;28;20243;-67
2022/07/31 00:32:00;;;;;;;;;;;16.40;99.90;;;;;;5083029;28;19921;-67
2022/07/31 00:34:27;;;;;;;;;;;16.30;99.90;;;;;;5084156;28;19920;-68
2022/07/31 00:36:53;;;;;;;;;;;16.30;99.90;;;;;;5087168;28;19940;-68
2022/07/31 00:39:20;;;;;;;;;;;16.30;99.90;;;;;;5087228;28;19956;-68
2022/07/31 00:41:48;;;;;;;;;;;16.20;99.90;;;;;;5086954;28;19987;-67
2022/07/31 00:44:15;;;;;;;;;;;16.30;99.90;;;;;;5086204;28;19920;-67
2022/07/31 00:46:41;;;;;;;;;;;16.20;99.90;;;;;;5086957;28;19920;-67
2022/07/31 00:49:09;;;;;;;;;;;16.20;99.90;;;;;;5098001;28;19920;-67
2022/07/31 00:51:36;;;;;;;;;;;16.20;99.90;;;;;;5107300;28;19951;-67
2022/07/31 00:54:03;;;;;;;;;;;16.10;99.90;;;;;;5106598;28;19966;-67
2022/07/31 00:56:30;;;;;;;;;;;16.10;99.90;;;;;;5095931;28;19967;-68
2022/07/31 00:58:57;;;;;;;;;;;16.10;99.90;;;;;;5101858;28;19952;-67
2022/07/31 01:01:23;;;;;;;;;;;16.00;99.90;;;;;;5107199;28;19959;-67
2022/07/31 01:03:50;;;;;;;;;;;16.00;99.90;;;;;;5106757;28;19927;-67
2022/07/31 01:06:18;;;;;;;;;;;16.00;99.90;;;;;;5106056;28;19927;-67
2022/07/31 01:08:45;;;;;;;;;;;16.00;99.90;;;;;;5106656;28;19956;-67
2022/07/31 01:11:13;;;;;;;;;;;15.90;99.90;;;;;;5106727;28;19920;-68
2022/07/31 01:13:56;;;;;;;;;;;15.90;99.90;;;;;;5105956;28;20196;-67
2022/07/31 01:16:24;;;;;;;;;;;15.90;99.90;;;;;;5106578;28;19920;-67
2022/07/31 01:18:54;;;;;;;;;;;15.90;99.90;;;;;;5106408;28;19986;-67
2022/07/31 01:21:26;;;;;;;;;;;15.80;99.90;;;;;;5106487;28;19920;-67
2022/07/31 01:24:00;;;;;;;;;;;15.80;99.90;;;;;;5106028;28;19959;-67
2022/07/31 01:26:34;;;;;;;;;;;15.80;99.90;;;;;;5099626;28;19921;-67
2022/07/31 01:29:06;;;;;;;;;;;15.80;99.90;;;;;;5086122;28;19920;-68
2022/07/31 01:31:35;;;;;;;;;;;15.80;99.90;;;;;;5086121;28;20251;-67
2022/07/31 01:34:05;;;;;;;;;;;15.80;99.90;;;;;;5085337;28;19988;-67
2022/07/31 01:36:33;;;;;;;;;;;15.70;99.90;;;;;;5086022;28;19935;-67
2022/07/31 01:39:00;;;;;;;;;;;15.70;99.90;;;;;;5086169;28;19921;-67
2022/07/31 01:41:29;;;;;;;;;;;15.70;99.90;;;;;;5085931;28;19920;-67
2022/07/31 01:43:57;;;;;;;;;;;15.70;99.90;;;;;;5085449;28;19956;-67
2022/07/31 01:46:26;;;;;;;;;;;15.60;99.90;;;;;;5085164;28;19995;-68
2022/07/31 01:48:55;;;;;;;;;;;15.60;99.90;;;;;;5095654;28;19927;-67
2022/07/31 01:51:22;;;;;;;;;;;15.50;99.90;;;;;;5106013;28;19920;-67
2022/07/31 01:53:50;;;;;;;;;;;15.50;99.90;;;;;;5105298;28;19924;-67
2022/07/31 01:56:18;;;;;;;;;;;15.50;99.90;;;;;;5106133;28;19995;-67
2022/07/31 01:58:46;;;;;;;;;;;15.50;99.90;;;;;;5105642;28;19927;-68
2022/07/31 02:01:13;;;;;;;;;;;15.50;99.90;;;;;;5091521;28;19959;-67
2022/07/31 02:03:42;;;;;;;;;;;15.50;99.90;;;;;;5084810;28;19983;-67
2022/07/31 02:06:09;;;;;;;;;;;15.50;99.90;;;;;;5085677;28;19920;-67
2022/07/31 02:08:36;;;;;;;;;;;15.40;99.90;;;;;;5085475;28;20208;-67
2022/07/31 02:11:03;;;;;;;;;;;15.40;99.90;;;;;;5085338;28;19956;-67
2022/07/31 02:13:30;;;;;;;;;;;15.40;99.90;;;;;;5096958;28;19979;-66
2022/07/31 02:15:57;;;;;;;;;;;15.40;99.90;;;;;;5105361;28;19970;-67
2022/07/31 02:18:24;;;;;;;;;;;15.40;99.90;;;;;;5105591;28;19962;-68
2022/07/31 02:20:53;;;;;;;;;;;15.40;99.90;;;;;;5105654;28;19959;-67
2022/07/31 02:23:19;;;;;;;;;;;15.40;99.90;;;;;;5104826;28;19983;-68
2022/07/31 02:25:47;;;;;;;;;;;15.30;99.90;;;;;;5104557;28;19920;-67
2022/07/31 02:28:19;;;;;;;;;;;15.30;99.90;;;;;;5105197;28;19955;-67
2022/07/31 02:30:46;;;;;;;;;;;15.30;99.90;;;;;;5104987;28;19940;-67
2022/07/31 02:33:14;;;;;;;;;;;15.20;99.90;;;;;;5105078;28;19981;-67
2022/07/31 02:35:44;;;;;;;;;;;15.30;99.90;;;;;;5103520;28;19958;-67
2022/07/31 02:38:12;;;;;;;;;;;15.20;99.90;;;;;;5084618;28;20224;-67
2022/07/31 02:40:39;;;;;;;;;;;15.20;99.90;;;;;;5084844;28;20228;-67
2022/07/31 02:43:06;;;;;;;;;;;15.20;99.90;;;;;;5084117;28;19920;-67
2022/07/31 02:45:33;;;;;;;;;;;15.20;99.90;;;;;;5084617;28;20172;-67
2022/07/31 02:48:01;;;;;;;;;;;15.20;99.90;;;;;;5088686;28;19980;-67
2022/07/31 02:50:27;;;;;;;;;;;15.20;99.90;;;;;;5104699;28;19947;-67
2022/07/31 02:52:54;;;;;;;;;;;15.10;99.90;;;;;;5104625;28;19970;-67
2022/07/31 02:55:22;;;;;;;;;;;15.00;99.90;;;;;;5104678;28;19992;-68
2022/07/31 02:57:50;;;;;;;;;;;15.00;99.90;;;;;;5103843;28;20018;-67
2022/07/31 03:00:21;;;;;;;;;;;15.00;99.90;;;;;;5104509;28;19927;-68
2022/07/31 03:02:48;;;;;;;;;;;14.90;99.90;;;;;;5102158;28;20259;-67
2022/07/31 03:05:15;;;;;;;;;;;14.90;99.90;;;;;;5104318;28;19979;-67
2022/07/31 03:07:42;;;;;;;;;;;14.90;99.90;;;;;;5104401;28;19920;-67
2022/07/31 03:10:09;;;;;;;;;;;14.90;99.90;;;;;;5104299;28;19962;-68
2022/07/31 03:12:38;;;;;;;;;;;14.80;99.90;;;;;;5103772;28;19924;-67
2022/07/31 03:15:06;;;;;;;;;;;14.80;99.90;;;;;;5104332;28;20170;-68
2022/07/31 03:17:33;;;;;;;;;;;14.80;99.90;;;;;;5104348;28;19920;-66
2022/07/31 03:20:00;;;;;;;;;;;14.70;99.90;;;;;;5104344;28;19927;-67
2022/07/31 03:22:26;;;;;;;;;;;14.70;99.90;;;;;;5104094;28;20208;-67
2022/07/31 03:24:54;;;;;;;;;;;14.70;99.90;;;;;;5102658;28;19988;-67
2022/07/31 03:27:21;;;;;;;;;;;14.70;99.90;;;;;;5103975;28;19986;-68
2022/07/31 03:29:49;;;;;;;;;;;14.70;99.90;;;;;;5103973;28;19952;-67
2022/07/31 03:32:16;;;;;;;;;;;14.70;99.90;;;;;;5103910;28;19920;-67
2022/07/31 03:34:42;;;;;;;;;;;14.70;99.90;;;;;;5103159;28;20174;-67
2022/07/31 03:37:09;;;;;;;;;;;14.70;99.90;;;;;;5097894;28;19920;-68
2022/07/31 03:39:36;;;;;;;;;;;14.70;99.90;;;;;;5083818;28;19920;-67
2022/07/31 03:42:03;;;;;;;;;;;14.70;99.90;;;;;;5083899;28;19920;-68
2022/07/31 03:44:31;;;;;;;;;;;14.70;99.90;;;;;;5083091;28;19984;-68
2022/07/31 03:46:59;;;;;;;;;;;14.70;99.90;;;;;;5083448;28;20152;-67
2022/07/31 03:49:26;;;;;;;;;;;14.70;99.90;;;;;;5089113;28;19926;-67
2022/07/31 03:51:53;;;;;;;;;;;14.80;99.90;;;;;;5103659;28;20225;-67
2022/07/31 03:54:20;;;;;;;;;;;14.80;99.90;;;;;;5103384;28;19955;-67
2022/07/31 03:56:48;;;;;;;;;;;14.80;99.90;;;;;;5103229;28;20262;-67
2022/07/31 03:59:15;;;;;;;;;;;14.80;99.90;;;;;;5103957;28;19970;-67
2022/07/31 04:01:42;;;;;;;;;;;14.80;99.90;;;;;;5102798;28;19934;-67
2022/07/31 04:04:10;;;;;;;;;;;14.80;99.90;;;;;;5102819;28;19925;-67
2022/07/31 04:06:37;;;;;;;;;;;14.80;99.90;;;;;;5103598;28;19920;-67
2022/07/31 04:09:04;;;;;;;;;;;14.80;99.90;;;;;;5103404;28;19939;-67
2022/07/31 04:11:30;;;;;;;;;;;14.90;99.90;;;;;;5103834;28;20007;-67
2022/07/31 04:13:57;;;;;;;;;;;14.80;99.90;;;;;;5093876;28;19927;-67
2022/07/31 04:16:24;;;;;;;;;;;14.90;99.90;;;;;;5083211;28;19927;-68
2022/07/31 04:18:50;;;;;;;;;;;14.90;99.90;;;;;;5083181;28;19955;-68
2022/07/31 04:21:18;;;;;;;;;;;14.90;99.90;;;;;;5083349;28;19920;-67
2022/07/31 04:23:45;;;;;;;;;;;14.90;99.90;;;;;;5081605;28;19992;-67
2022/07/31 04:26:12;;;;;;;;;;;14.90;99.90;;;;;;5083242;28;19944;-68
2022/07/31 04:28:38;;;;;;;;;;;14.90;99.90;;;;;;5083193;28;20124;-67
2022/07/31 04:31:05;;;;;;;;;;;14.90;99.90;;;;;;5083103;28;20223;-68
2022/07/31 04:33:31;;;;;;;;;;;15.00;99.90;;;;;;5080578;28;19996;-67
2022/07/31 04:35:58;;;;;;;;;;;14.90;99.90;;;;;;5083217;28;19928;-68
2022/07/31 04:38:26;;;;;;;;;;;15.00;99.90;;;;;;5094166;28;19927;-67
2022/07/31 04:40:53;;;;;;;;;;;15.00;99.90;;;;;;5103573;28;19920;-67
2022/07/31 04:43:20;;;;;;;;;;;15.00;99.90;;;;;;5102543;28;19988;-68
2022/07/31 04:45:47;;;;;;;;;;;15.00;99.90;;;;;;5102909;28;20171;-68
2022/07/31 04:48:13;;;;;;;;;;;15.00;99.90;;;;;;5103110;28;19927;-68
2022/07/31 04:50:40;;;;;;;;;;;15.00;99.90;;;;;;5088873;28;19932;-68
2022/07/31 04:53:06;;;;;;;;;;;15.10;99.90;;;;;;5082473;28;19943;-68
2022/07/31 04:55:35;;;;;;;;;;;15.10;99.90;;;;;;5082842;28;19927;-67
2022/07/31 04:58:01;;;;;;;;;;;15.10;99.90;;;;;;5082718;28;19920;-67
2022/07/31 05:00:28;;;;;;;;;;;15.10;99.90;;;;;;5082699;28;19920;-67
2022/07/31 05:02:54;;;;;;;;;;;15.20;99.90;;;;;;5097634;28;19926;-67
2022/07/31 05:05:21;;;;;;;;;;;15.20;99.90;;;;;;5102951;28;19951;-68
2022/07/31 05:07:48;;;;;;;;;;;15.20;99.90;;;;;;5103133;28;20231;-67
2022/07/31 05:12:56;;;;;;;;;;;15.30;99.90;;;;;;5101332;28;19916;-68
2022/07/31 05:15:23;;;;;;;;;;;15.30;99.90;;;;;;5084305;28;20188;-68
2022/07/31 05:17:50;;;;;;;;;;;15.40;99.90;;;;;;5090585;28;20203;-68
2022/07/31 05:20:18;;;;;;;;;;;15.50;99.90;;;;;;5083729;28;19921;-68
2022/07/31 05:22:44;;;;;;;;;;;15.50;99.90;;;;;;5085430;28;19920;-69
2022/07/31 05:25:11;;;;;;;;;;;15.60;99.90;;;;;;5087807;28;19963;-68
2022/07/31 05:27:38;;;;;;;;;;;15.70;99.90;;;;;;5086199;28;19928;-68
2022/07/31 05:30:07;;;;;;;;;;;15.70;99.90;;;;;;5086190;28;19920;-68
2022/07/31 05:32:34;;;;;;;;;;;15.80;99.90;;;;;;5083423;28;19982;-69
2022/07/31 05:35:01;;;;;;;;;;;15.90;99.90;;;;;;5091978;28;19940;-68
2022/07/31 05:37:29;;;;;;;;;;;15.90;99.90;;;;;;5089558;28;19959;-68
2022/07/31 05:39:55;;;;;;;;;;;15.90;99.90;;;;;;5101498;28;19926;-68
2022/07/31 05:42:31;;;;;;;;;;;15.90;99.90;;;;;;5102694;28;19928;-69
2022/07/31 05:44:57;;;;;;;;;;;16.00;99.90;;;;;;5085895;28;19951;-67
2022/07/31 05:47:25;;;;;;;;;;;16.00;99.90;;;;;;5090828;28;19951;-67
2022/07/31 05:49:52;;;;;;;;;;;16.00;99.90;;;;;;5086774;28;19992;-68
2022/07/31 05:52:18;;;;;;;;;;;16.00;99.90;;;;;;5086172;28;19920;-67
2022/07/31 05:54:45;;;;;;;;;;;16.00;99.90;;;;;;5085628;28;19928;-68
2022/07/31 05:57:12;;;;;;;;;;;16.00;99.90;;;;;;5085755;28;19921;-68
2022/07/31 05:59:38;;;;;;;;;;;16.00;99.90;;;;;;5086445;28;19920;-69
2022/07/31 06:02:05;;;;;;;;;;;16.10;99.90;;;;;;5085511;28;19921;-67
2022/07/31 06:04:33;;;;;;;;;;;16.10;99.90;;;;;;5085295;28;19952;-66
2022/07/31 06:07:00;;;;;;;;;;;16.10;99.90;;;;;;5087767;28;19921;-67
2022/07/31 06:09:26;;;;;;;;;;;16.20;99.90;;;;;;5105914;28;20026;-67
2022/07/31 06:11:53;;;;;;;;;;;16.30;99.90;;;;;;5106281;28;19979;-68
2022/07/31 06:14:20;;;;;;;;;;;16.30;99.90;;;;;;5105384;28;19920;-70
2022/07/31 06:16:48;;;;;;;;;;;16.40;99.90;;;;;;5105640;28;19928;-67
2022/07/31 06:19:15;;;;;;;;;;;16.50;99.90;;;;;;5105470;28;19920;-68
2022/07/31 06:21:43;;;;;;;;;;;16.70;99.90;;;;;;5105192;28;19920;-68
2022/07/31 06:24:10;;;;;;;;;;;16.80;99.90;;;;;;5100868;28;19963;-68
2022/07/31 06:26:37;;;;;;;;;;;17.00;99.90;;;;;;5085372;28;19927;-68
2022/07/31 06:29:03;;;;;;;;;;;17.10;99.90;;;;;;5084825;28;19962;-70
2022/07/31 06:31:30;;;;;;;;;;;17.20;99.90;;;;;;5089812;28;19952;-68
2022/07/31 06:33:57;;;;;;;;;;;17.30;99.90;;;;;;5104909;28;19955;-68
2022/07/31 06:36:23;;;;;;;;;;;17.40;99.90;;;;;;5105028;28;20212;-68
2022/07/31 06:38:52;;;;;;;;;;;17.60;99.90;;;;;;5104855;28;19927;-67
2022/07/31 06:43:59;;;;;;;;;;;17.80;99.90;;;;;;5099409;28;19916;-67
2022/07/31 06:46:27;;;;;;;;;;;17.90;99.90;;;;;;5102011;28;19952;-68
2022/07/31 06:48:54;;;;;;;;;;;18.10;99.90;;;;;;5104986;28;19932;-67
2022/07/31 06:51:23;;;;;;;;;;;18.10;99.90;;;;;;5097488;28;20400;-68
2022/07/31 06:53:57;;;;;;;;;;;18.20;99.90;;;;;;5099890;28;19924;-67
2022/07/31 06:56:23;;;;;;;;;;;18.20;99.90;;;;;;5084956;28;20219;-67
2022/07/31 06:58:50;;;;;;;;;;;18.30;99.90;;;;;;5084582;28;19970;-67
2022/07/31 07:01:17;;;;;;;;;;;18.30;99.90;;;;;;5084492;28;19921;-68
2022/07/31 07:03:43;;;;;;;;;;;18.30;99.90;;;;;;5084115;28;19921;-67
2022/07/31 07:06:10;;;;;;;;;;;18.30;99.90;;;;;;5084620;28;19921;-67
2022/07/31 07:08:37;;;;;;;;;;;18.40;99.90;;;;;;5084516;28;19920;-67
2022/07/31 07:11:05;;;;;;;;;;;18.40;99.90;;;;;;5089657;28;19920;-66
2022/07/31 07:13:31;;;;;;;;;;;18.40;99.90;;;;;;5104192;28;19920;-66
2022/07/31 07:15:58;;;;;;;;;;;18.40;99.90;;;;;;5103877;28;19951;-67
2022/07/31 07:18:25;;;;;;;;;;;18.40;99.90;;;;;;5104411;28;20266;-67
2022/07/31 07:20:52;;;;;;;;;;;18.50;99.90;;;;;;5102816;28;20223;-68
2022/07/31 07:23:18;;;;;;;;;;;18.60;99.90;;;;;;5103592;28;19920;-66
2022/07/31 07:25:45;;;;;;;;;;;18.70;99.90;;;;;;5104381;28;19920;-67
2022/07/31 07:28:13;;;;;;;;;;;18.90;99.90;;;;;;5104392;28;19979;-66
2022/07/31 07:30:40;;;;;;;;;;;19.00;99.90;;;;;;5104621;28;19920;-68
2022/07/31 07:33:06;;;;;;;;;;;19.10;99.90;;;;;;5104520;28;19927;-68
2022/07/31 07:35:35;;;;;;;;;;;19.20;99.90;;;;;;5103903;28;19991;-69
2022/07/31 07:38:02;;;;;;;;;;;19.30;99.90;;;;;;5104250;28;19936;-66
2022/07/31 07:40:29;;;;;;;;;;;19.50;99.90;;;;;;5104017;28;20455;-66
2022/07/31 07:42:55;;;;;;;;;;;19.60;99.90;;;;;;5085147;28;20266;-72
2022/07/31 07:45:24;;;;;;;;;;;19.70;99.90;;;;;;5108316;28;19947;-70
2022/07/31 07:47:50;;;;;;;;;;;19.90;99.90;;;;;;5094108;28;20191;-69
2022/07/31 07:50:17;;;;;;;;;;;20.10;99.90;;;;;;5103017;28;20295;-70
2022/07/31 07:52:44;;;;;;;;;;;20.20;99.90;;;;;;5102582;28;19999;-69
2022/07/31 07:55:11;;;;;;;;;;;20.40;99.90;;;;;;5102506;28;19967;-70
2022/07/31 07:57:38;;;;;;;;;;;20.50;99.90;;;;;;5102549;28;19920;-69
2022/07/31 08:00:06;;;;;;;;;;;20.70;99.90;;;;;;5103833;28;19974;-70
2022/07/31 08:02:34;;;;;;;;;;;20.90;99.90;;;;;;5103433;28;20234;-70
2022/07/31 08:05:01;;;;;;;;;;;21.10;99.90;;;;;;5103382;28;19955;-70
2022/07/31 08:07:28;;;;;;;;;;;21.20;99.90;;;;;;5103257;28;19927;-70
2022/07/31 08:09:55;;;;;;;;;;;21.40;99.90;;;;;;5103505;28;20207;-70
2022/07/31 08:12:22;;;;;;;;;;;21.50;99.90;;;;;;5103135;28;19962;-70
2022/07/31 08:14:48;;;;;;;;;;;21.70;99.90;;;;;;5103297;28;19975;-70
2022/07/31 08:17:15;;;;;;;;;;;21.80;99.90;;;;;;5103276;28;19927;-70
2022/07/31 08:19:43;;;;;;;;;;;21.90;99.90;;;;;;5103250;28;20276;-70
2022/07/31 08:22:10;;;;;;;;;;;22.10;99.90;;;;;;5103148;28;19983;-70
2022/07/31 08:24:37;;;;;;;;;;;22.10;99.90;;;;;;5103163;28;19921;-70
2022/07/31 08:29:47;;;;;;;;;;;22.30;99.90;;;;;;5103516;28;19938;-70
2022/07/31 08:32:14;;;;;;;;;;;22.40;99.90;;;;;;5103375;28;19920;-70
2022/07/31 08:34:41;;;;;;;;;;;22.40;99.90;;;;;;5103315;28;19958;-70
2022/07/31 08:37:09;;;;;;;;;;;22.50;99.90;;;;;;5103296;28;19987;-71
2022/07/31 08:39:36;;;;;;;;;;;22.50;99.90;;;;;;5103899;28;19987;-70
2022/07/31 08:42:03;;;;;;;;;;;22.60;99.90;;;;;;5103654;28;19959;-70
2022/07/31 08:44:31;;;;;;;;;;;22.70;99.90;;;;;;5103043;28;20204;-70
2022/07/31 08:46:58;;;;;;;;;;;22.90;99.90;;;;;;5103107;28;19951;-71
2022/07/31 08:49:25;;;;;;;;;;;23.00;99.90;;;;;;5103315;28;19987;-70
2022/07/31 08:51:53;;;;;;;;;;;23.10;99.90;;;;;;5103098;28;19920;-70
2022/07/31 08:54:24;;;;;;;;;;;23.20;99.90;;;;;;5103087;28;19958;-70
2022/07/31 08:56:52;;;;;;;;;;;23.30;99.90;;;;;;5106386;28;20031;-70
2022/07/31 08:59:18;;;;;;;;;;;23.30;99.90;;;;;;5107134;28;19926;-70
2022/07/31 09:01:45;;;;;;;;;;;23.40;99.90;;;;;;5107034;28;19951;-70
2022/07/31 09:04:12;;;;;;;;;;;23.50;99.90;;;;;;5106646;28;19921;-70
2022/07/31 09:06:39;;;;;;;;;;;23.60;99.90;;;;;;5107133;28;20083;-70
2022/07/31 09:09:05;;;;;;;;;;;23.70;99.90;;;;;;5106762;28;19970;-71
2022/07/31 09:11:33;;;;;;;;;;;23.80;99.90;;;;;;5107252;28;19962;-70
2022/07/31 09:14:01;;;;;;;;;;;23.90;99.90;;;;;;5106636;28;19926;-70
2022/07/31 09:16:29;;;;;;;;;;;24.00;99.90;;;;;;5106597;28;19926;-70
2022/07/31 09:18:56;;;;;;;;;;;24.10;99.90;;;;;;5106573;28;20223;-70
2022/07/31 09:21:23;;;;;;;;;;;24.30;99.90;;;;;;5106870;28;19935;-70
2022/07/31 09:23:49;;;;;;;;;;;24.40;99.90;;;;;;5106428;28;19927;-70
2022/07/31 09:26:16;;;;;;;;;;;24.50;99.90;;;;;;5106602;28;20188;-70
2022/07/31 09:28:45;;;;;;;;;;;24.60;99.90;;;;;;5106259;28;20227;-70
2022/07/31 09:31:12;;;;;;;;;;;24.70;99.90;;;;;;5106976;28;19975;-70
2022/07/31 09:33:39;;;;;;;;;;;24.80;99.90;;;;;;5106210;28;19928;-71
2022/07/31 09:36:06;;;;;;;;;;;24.80;99.90;;;;;;5106491;28;19926;-72
2022/07/31 09:38:34;;;;;;;;;;;24.80;99.90;;;;;;5106312;28;19960;-70
2022/07/31 09:41:11;;;;;;;;;;;24.80;99.90;;;;;;5106381;28;20329;-70
2022/07/31 09:43:38;;;;;;;;;;;24.80;99.90;;;;;;5106063;28;19996;-70
2022/07/31 09:46:07;;;;;;;;;;;24.80;99.90;;;;;;5106046;28;19927;-70
2022/07/31 09:48:33;;;;;;;;;;;24.70;99.90;;;;;;5106211;28;19947;-70
2022/07/31 09:51:01;;;;;;;;;;;24.60;99.90;;;;;;5106244;28;19983;-70
2022/07/31 09:53:39;;;;;;;;;;;24.60;99.90;;;;;;5106088;28;19981;-70
2022/07/31 09:56:07;;;;;;;;;;;24.50;99.90;;;;;;5105595;28;19947;-71
2022/07/31 09:58:33;;;;;;;;;;;24.50;99.90;;;;;;5105169;28;19999;-70
2022/07/31 10:01:01;;;;;;;;;;;24.40;99.90;;;;;;5106237;28;19958;-70
2022/07/31 10:03:29;;;;;;;;;;;24.40;99.90;;;;;;5105998;28;19962;-70
2022/07/31 10:05:56;;;;;;;;;;;24.40;99.90;;;;;;5105637;28;19971;-70
2022/07/31 10:08:23;;;;;;;;;;;24.40;99.90;;;;;;5105829;28;19951;-70
2022/07/31 10:10:50;;;;;;;;;;;24.40;99.90;;;;;;5105746;28;19962;-70
2022/07/31 10:13:19;;;;;;;;;;;24.40;99.90;;;;;;5105377;28;19920;-70
2022/07/31 10:15:47;;;;;;;;;;;24.40;99.90;;;;;;5105630;28;19956;-70
2022/07/31 10:18:15;;;;;;;;;;;24.40;99.90;;;;;;5105526;28;19995;-70
2022/07/31 10:20:49;;;;;;;;;;;24.40;99.90;;;;;;5105597;28;19920;-70
2022/07/31 10:23:16;;;;;;;;;;;24.40;99.90;;;;;;5105182;28;19920;-70
2022/07/31 10:25:45;;;;;;;;;;;24.40;99.90;;;;;;5105262;28;19920;-70
2022/07/31 10:28:12;;;;;;;;;;;24.50;99.90;;;;;;5105448;28;19983;-70
2022/07/31 10:30:39;;;;;;;;;;;24.50;99.90;;;;;;5105425;28;19920;-70
2022/07/31 10:33:06;;;;;;;;;;;24.50;99.90;;;;;;5104956;28;19924;-70
2022/07/31 10:35:38;;;;;;;;;;;24.70;99.90;;;;;;5105229;28;19956;-70
2022/07/31 10:38:11;;;;;;;;;;;24.80;99.90;;;;;;5104831;28;19996;-70
2022/07/31 10:40:42;;;;;;;;;;;25.10;99.90;;;;;;5105221;28;19927;-70
2022/07/31 10:43:17;;;;;;;;;;;25.20;99.90;;;;;;5104155;28;19983;-71
2022/07/31 10:45:47;;;;;;;;;;;25.40;99.90;;;;;;5105164;28;19920;-70
2022/07/31 10:48:14;;;;;;;;;;;25.50;99.90;;;;;;5104827;28;19920;-70
2022/07/31 10:50:41;;;;;;;;;;;25.70;99.90;;;;;;5105061;28;20008;-70
2022/07/31 10:53:10;;;;;;;;;;;25.80;99.90;;;;;;5104611;28;20152;-70
2022/07/31 10:55:36;;;;;;;;;;;25.80;99.90;;;;;;5104487;28;19921;-71
2022/07/31 10:58:07;;;;;;;;;;;25.90;99.90;;;;;;5104827;28;19927;-71
2022/07/31 11:00:33;;;;;;;;;;;26.10;99.90;;;;;;5104869;28;19988;-70
2022/07/31 11:03:00;;;;;;;;;;;26.10;99.90;;;;;;5104386;28;19920;-70
2022/07/31 11:05:27;;;;;;;;;;;26.20;99.90;;;;;;5104928;28;19960;-70
2022/07/31 11:08:00;;;;;;;;;;;26.30;99.90;;;;;;5104495;28;19946;-70
2022/07/31 11:10:28;;;;;;;;;;;26.50;99.90;;;;;;5104719;28;19961;-70
2022/07/31 11:13:01;;;;;;;;;;;26.60;99.90;;;;;;5104365;28;20127;-70
2022/07/31 11:15:28;;;;;;;;;;;26.80;99.90;;;;;;5104377;28;20199;-70
2022/07/31 11:17:55;;;;;;;;;;;26.90;99.00;;;;;;5103661;28;19995;-70
2022/07/31 11:20:23;;;;;;;;;;;26.90;98.80;;;;;;5104656;28;19920;-71
2022/07/31 11:22:58;;;;;;;;;;;27.00;98.10;;;;;;5104039;28;19920;-70
2022/07/31 11:25:28;;;;;;;;;;;27.10;98.10;;;;;;5104303;28;19920;-70
2022/07/31 11:27:56;;;;;;;;;;;27.10;98.10;;;;;;5096000;28;19927;-70
2022/07/31 11:30:23;;;;;;;;;;;27.10;97.60;;;;;;5104291;28;19932;-71
2022/07/31 11:32:50;;;;;;;;;;;27.10;97.70;;;;;;5104083;28;19979;-71
2022/07/31 11:35:30;;;;;;;;;;;27.20;97.90;;;;;;5104213;28;20263;-71
2022/07/31 11:37:57;;;;;;;;;;;27.40;97.30;;;;;;5104075;28;19987;-71
2022/07/31 11:40:23;;;;;;;;;;;27.60;96.90;;;;;;5103863;28;19982;-70
2022/07/31 11:42:50;;;;;;;;;;;27.80;97.40;;;;;;5103747;28;19920;-70
2022/07/31 11:45:18;;;;;;;;;;;28.00;96.70;;;;;;5104064;28;19951;-71
2022/07/31 11:47:46;;;;;;;;;;;28.10;95.90;;;;;;5103104;28;19920;-70
2022/07/31 11:50:13;;;;;;;;;;;28.20;95.70;;;;;;5104063;28;19983;-71
2022/07/31 11:52:42;;;;;;;;;;;28.30;95.20;;;;;;5103579;28;19955;-70
2022/07/31 11:55:10;;;;;;;;;;;28.40;95.20;;;;;;5103691;28;19920;-70
2022/07/31 11:57:37;;;;;;;;;;;28.40;95.00;;;;;;5103808;28;19920;-70
2022/07/31 12:00:06;;;;;;;;;;;28.30;94.90;;;;;;5104090;28;19986;-71
2022/07/31 12:02:34;;;;;;;;;;;28.20;95.20;;;;;;5103669;28;19955;-69
2022/07/31 12:05:02;;;;;;;;;;;28.30;94.70;;;;;;5103441;28;20164;-70
2022/07/31 12:07:29;;;;;;;;;;;28.30;94.60;;;;;;5103770;28;19939;-70
2022/07/31 12:09:56;;;;;;;;;;;28.40;94.80;;;;;;5103572;28;19927;-71
2022/07/31 12:12:23;;;;;;;;;;;28.30;94.50;;;;;;5103768;28;19951;-70
2022/07/31 12:14:50;;;;;;;;;;;28.30;94.60;;;;;;5103332;28;20286;-69
2022/07/31 12:17:19;;;;;;;;;;;28.30;94.20;;;;;;5103559;28;19920;-69
2022/07/31 12:19:48;;;;;;;;;;;28.30;93.80;;;;;;5103512;28;19951;-69
2022/07/31 12:22:15;;;;;;;;;;;28.30;94.10;;;;;;5103398;28;19920;-69
2022/07/31 12:24:41;;;;;;;;;;;28.40;94.90;;;;;;5103254;28;19920;-69
2022/07/31 12:27:08;;;;;;;;;;;28.50;94.10;;;;;;5103468;28;19927;-69
2022/07/31 12:29:36;;;;;;;;;;;28.50;93.30;;;;;;5105510;28;19955;-68
2022/07/31 12:32:03;;;;;;;;;;;28.40;93.80;;;;;;5107678;28;19924;-69
2022/07/31 12:34:32;;;;;;;;;;;28.50;93.50;;;;;;5107289;28;19920;-69
2022/07/31 12:37:03;;;;;;;;;;;28.50;93.90;;;;;;5107378;28;19966;-69
2022/07/31 12:39:31;;;;;;;;;;;28.70;93.10;;;;;;5107698;28;19991;-69
2022/07/31 12:41:57;;;;;;;;;;;29.00;93.60;;;;;;5107588;28;19987;-69
2022/07/31 12:44:24;;;;;;;;;;;29.10;93.20;;;;;;5107050;28;19920;-68
2022/07/31 12:46:50;;;;;;;;;;;29.40;93.00;;;;;;5107316;28;19983;-69
2022/07/31 12:49:17;;;;;;;;;;;29.50;93.00;;;;;;5107143;28;19956;-69
2022/07/31 12:51:44;;;;;;;;;;;29.60;92.50;;;;;;5107273;28;19920;-69
2022/07/31 12:54:12;;;;;;;;;;;29.70;92.10;;;;;;5107219;28;19983;-69
2022/07/31 12:56:40;;;;;;;;;;;29.70;91.90;;;;;;5107479;28;19924;-69
2022/07/31 12:59:07;;;;;;;;;;;29.80;92.00;;;;;;5107038;28;19963;-69
2022/07/31 13:01:34;;;;;;;;;;;30.00;91.30;;;;;;5107158;28;20156;-69
2022/07/31 13:04:00;;;;;;;;;;;29.90;91.10;;;;;;5106625;28;20232;-69
2022/07/31 13:06:28;;;;;;;;;;;29.70;91.20;;;;;;5107070;28;19959;-70
2022/07/31 13:08:54;;;;;;;;;;;29.50;91.10;;;;;;5106943;28;19988;-69
2022/07/31 13:11:24;;;;;;;;;;;29.30;91.20;;;;;;5106842;28;19983;-69
2022/07/31 13:13:51;;;;;;;;;;;29.10;91.10;;;;;;5106684;28;20042;-69
2022/07/31 13:16:17;;;;;;;;;;;29.00;91.70;;;;;;5106842;28;19943;-70
2022/07/31 13:18:44;;;;;;;;;;;29.00;91.90;;;;;;5106609;28;19920;-69
2022/07/31 13:21:11;;;;;;;;;;;28.90;91.20;;;;;;5106956;28;19920;-69
2022/07/31 13:23:38;;;;;;;;;;;28.80;91.90;;;;;;5106528;28;19920;-69
2022/07/31 13:26:05;;;;;;;;;;;28.70;91.70;;;;;;5106620;28;19920;-69
2022/07/31 13:28:33;;;;;;;;;;;28.50;92.60;;;;;;5107014;28;19957;-69
2022/07/31 13:31:00;;;;;;;;;;;28.40;92.20;;;;;;5106393;28;19920;-69
2022/07/31 13:33:27;;;;;;;;;;;28.40;92.60;;;;;;5106162;28;19920;-70
2022/07/31 13:35:53;;;;;;;;;;;28.30;92.30;;;;;;5106523;28;19942;-69
2022/07/31 13:38:20;;;;;;;;;;;28.30;93.10;;;;;;5106337;28;20140;-70
2022/07/31 13:43:31;;;;;;;;;;;28.20;92.90;;;;;;5106093;28;20168;-69
2022/07/31 13:45:59;;;;;;;;;;;28.20;93.20;;;;;;5106277;28;19951;-69
2022/07/31 13:48:25;;;;;;;;;;;28.20;93.30;;;;;;5106078;28;20255;-69
2022/07/31 13:50:52;;;;;;;;;;;28.20;93.30;;;;;;5106099;28;20223;-70
2022/07/31 13:53:19;;;;;;;;;;;28.30;92.80;;;;;;5105846;28;19927;-69
2022/07/31 13:55:45;;;;;;;;;;;28.20;93.30;;;;;;5106293;28;19920;-69
2022/07/31 13:58:12;;;;;;;;;;;28.20;93.30;;;;;;5106248;28;19928;-69
2022/07/31 14:00:39;;;;;;;;;;;28.00;93.20;;;;;;5106301;28;19929;-69
2022/07/31 14:03:07;;;;;;;;;;;27.90;93.60;;;;;;5105735;28;20212;-69
2022/07/31 14:05:33;;;;;;;;;;;27.90;93.60;;;;;;5105895;28;20200;-69
2022/07/31 14:08:00;;;;;;;;;;;27.90;93.40;;;;;;5105946;28;19927;-69
2022/07/31 14:10:27;;;;;;;;;;;27.80;93.50;;;;;;5105753;28;19927;-69
2022/07/31 14:12:54;;;;;;;;;;;27.70;94.00;;;;;;5105480;28;19952;-68
2022/07/31 14:15:20;;;;;;;;;;;27.70;93.60;;;;;;5105850;28;19986;-69
2022/07/31 14:17:47;;;;;;;;;;;27.70;93.50;;;;;;5105718;28;20116;-69
2022/07/31 14:20:15;;;;;;;;;;;27.60;93.60;;;;;;5105626;28;20242;-69
2022/07/31 14:22:42;;;;;;;;;;;27.60;93.60;;;;;;5105157;28;19927;-69
2022/07/31 14:25:09;;;;;;;;;;;27.60;94.20;;;;;;5105415;28;20286;-68
2022/07/31 14:27:37;;;;;;;;;;;27.70;93.70;;;;;;5105456;28;19951;-69